Time;durP1;ratioP1;P1;durP2;ratioP2;P2;SDS_P1;SDS_P2;PMS_P1;PMS_P2;Temp;Humidity;BMP_temperature;BMP_pressure;BME280_temperature;BME280_humidity;BME280_pressure;Samples;Min_cycle;Max_cycle;Signal;HPM_P1;HPM_P2
2024/01/09 00:01:12;;;;;;;;;;;;;;;-6.08;50.52;101866.48;106450;1254;68883;-84
2024/01/09 00:03:52;;;;;;;;;;;;;;;-6.08;50.04;101872.69;106627;1257;73943;-88
2024/01/09 00:06:32;;;;;;;;;;;;;;;-6.11;50.26;101879.55;106437;1258;60454;-89
2024/01/09 00:09:12;;;;;;;;;;;;;;;-6.16;50.14;101888.36;106506;1253;60487;-88
2024/01/09 00:11:52;;;;;;;;;;;;;;;-6.16;50.05;101894.14;107062;1252;72683;-86
2024/01/09 00:14:32;;;;;;;;;;;;;;;-6.25;49.88;101895.99;106529;1253;67147;-87
2024/01/09 00:17:12;;;;;;;;;;;;;;;-6.32;50.10;101900.00;106260;1258;72640;-77
2024/01/09 00:19:52;;;;;;;;;;;;;;;-6.39;50.28;101897.64;106409;1254;60871;-79
2024/01/09 00:22:32;;;;;;;;;;;;;;;-6.30;50.06;101904.03;106611;1252;60514;-81
2024/01/09 00:25:16;;;;;;;;;;;;;;;-6.35;49.57;101899.89;106612;1252;72717;-87
2024/01/09 00:27:56;;;;;;;;;;;;;;;-6.41;49.77;101902.23;107216;1253;68351;-86
2024/01/09 00:30:35;;;;;;;;;;;;;;;-6.44;49.89;101901.05;106405;1253;72668;-79
2024/01/09 00:33:16;;;;;;;;;;;;;;;-6.40;49.59;101902.88;106404;1253;60951;-86
2024/01/09 00:35:57;;;;;;;;;;;;;;;-6.42;49.61;101909.38;106546;1253;60496;-86
2024/01/09 00:38:37;;;;;;;;;;;;;;;-6.48;49.63;101916.98;106816;1254;73883;-77
2024/01/09 00:41:19;;;;;;;;;;;;;;;-6.55;49.47;101917.02;106000;1253;68348;-86
2024/01/09 00:43:59;;;;;;;;;;;;;;;-6.63;49.47;101916.86;106399;1253;71386;-86
2024/01/09 00:46:39;;;;;;;;;;;;;;;-6.70;49.51;101919.79;106587;1253;60826;-77
2024/01/09 00:49:20;;;;;;;;;;;;;;;-6.69;49.48;101914.86;105979;1253;61011;-77
2024/01/09 00:52:00;;;;;;;;;;;;;;;-6.70;49.12;101915.16;106707;1254;72625;-87
2024/01/09 00:54:40;;;;;;;;;;;;;;;-6.73;49.29;101921.75;106467;1257;68684;-77
2024/01/09 00:57:21;;;;;;;;;;;;;;;-6.72;49.08;101929.63;106336;1257;71257;-77
2024/01/09 01:00:02;;;;;;;;;;;;;;;-6.76;49.12;101940.13;106631;1256;60569;-87
2024/01/09 01:02:41;;;;;;;;;;;;;;;-6.84;48.88;101945.09;106412;1253;62202;-77
2024/01/09 01:05:22;;;;;;;;;;;;;;;-6.84;49.05;101945.04;106353;1258;74050;-87
2024/01/09 01:08:02;;;;;;;;;;;;;;;-6.87;48.83;101945.80;106418;1253;67205;-86
2024/01/09 01:10:42;;;;;;;;;;;;;;;-6.92;49.00;101947.15;106098;1257;71423;-86
2024/01/09 01:13:22;;;;;;;;;;;;;;;-6.91;49.01;101950.05;106575;1254;60843;-77
2024/01/09 01:16:02;;;;;;;;;;;;;;;-6.98;48.95;101952.05;105885;1253;60480;-77
2024/01/09 01:18:42;;;;;;;;;;;;;;;-7.04;48.81;101952.05;106019;1253;73998;-88
2024/01/09 01:21:22;;;;;;;;;;;;;;;-7.05;49.06;101959.92;106014;1257;68332;-86
2024/01/09 01:24:02;;;;;;;;;;;;;;;-7.08;48.75;101964.07;106698;1254;71409;-77
2024/01/09 01:26:42;;;;;;;;;;;;;;;-7.17;49.25;101968.31;106237;1254;60456;-78
2024/01/09 01:29:22;;;;;;;;;;;;;;;-7.25;49.34;101979.24;106078;1253;60418;-86
2024/01/09 01:32:02;;;;;;;;;;;;;;;-7.27;48.98;101984.20;106093;1253;73666;-87
2024/01/09 01:34:45;;;;;;;;;;;;;;;-7.31;49.34;101984.02;106481;1253;68465;-77
2024/01/09 01:37:25;;;;;;;;;;;;;;;-7.27;49.04;101977.66;106636;1256;71173;-87
2024/01/09 01:40:05;;;;;;;;;;;;;;;-7.30;49.34;101974.39;105949;1253;60754;-87
2024/01/09 01:42:45;;;;;;;;;;;;;;;-7.31;49.36;101975.33;106159;1251;60427;-86
2024/01/09 01:45:28;;;;;;;;;;;;;;;-7.33;49.26;101980.61;106243;1254;72612;-85
2024/01/09 01:48:08;;;;;;;;;;;;;;;-7.37;49.34;101981.65;106306;1253;69171;-86
2024/01/09 01:50:49;;;;;;;;;;;;;;;-7.39;49.28;101991.92;106125;1253;71395;-85
2024/01/09 01:53:29;;;;;;;;;;;;;;;-7.40;49.35;101987.02;106892;1253;60490;-77
2024/01/09 01:56:04;;;;;;;;;;;;;;;-7.40;49.58;101986.13;106021;1260;60339;-77
2024/01/09 01:58:41;;;;;;;;;;;;;;;-7.34;49.49;101993.95;106279;1252;74909;-87
2024/01/09 02:01:16;;;;;;;;;;;;;;;-7.31;49.20;102007.56;106368;1253;68694;-87
2024/01/09 02:03:52;;;;;;;;;;;;;;;-7.37;49.37;102017.25;106235;1260;72955;-87
2024/01/09 02:06:27;;;;;;;;;;;;;;;-7.46;49.15;102014.07;106412;1258;62552;-77
2024/01/09 02:09:04;;;;;;;;;;;;;;;-7.46;49.56;102021.64;106481;1257;60534;-78
2024/01/09 02:11:40;;;;;;;;;;;;;;;-7.47;49.28;102023.02;107024;1261;72127;-77
2024/01/09 02:14:16;;;;;;;;;;;;;;;-7.57;49.59;102023.98;106079;1253;68479;-78
2024/01/09 02:16:51;;;;;;;;;;;;;;;-7.63;49.78;102021.93;106273;1252;72619;-87
2024/01/09 02:19:27;;;;;;;;;;;;;;;-7.61;49.79;102018.98;105899;1253;62852;-77
2024/01/09 02:22:04;;;;;;;;;;;;;;;-7.61;49.37;102012.56;106124;1259;60502;-77
2024/01/09 02:24:39;;;;;;;;;;;;;;;-7.57;49.44;102017.76;105986;1256;73853;-77
2024/01/09 02:27:14;;;;;;;;;;;;;;;-7.63;49.55;102022.00;106199;1252;68442;-77
2024/01/09 02:29:52;;;;;;;;;;;;;;;-7.72;49.68;102026.05;107563;1257;72728;-81
2024/01/09 02:32:28;;;;;;;;;;;;;;;-7.69;49.61;102027.78;106256;1253;60463;-87
2024/01/09 02:35:04;;;;;;;;;;;;;;;-7.62;49.49;102029.88;106172;1253;60371;-77
2024/01/09 02:37:39;;;;;;;;;;;;;;;-7.54;49.32;102039.90;105981;1258;76038;-77
2024/01/09 02:40:15;;;;;;;;;;;;;;;-7.52;49.33;102038.85;105957;1253;68354;-86
2024/01/09 02:42:50;;;;;;;;;;;;;;;-7.49;49.30;102032.90;105992;1253;71494;-77
2024/01/09 02:45:26;;;;;;;;;;;;;;;-7.52;49.30;102032.80;106729;1258;60378;-87
2024/01/09 02:48:01;;;;;;;;;;;;;;;-7.56;49.47;102034.84;106132;1258;60316;-77
2024/01/09 02:50:37;;;;;;;;;;;;;;;-7.62;49.58;102027.04;106026;1254;73879;-87
2024/01/09 02:53:12;;;;;;;;;;;;;;;-7.63;49.69;102025.48;106639;1256;68970;-87
2024/01/09 02:55:48;;;;;;;;;;;;;;;-7.62;49.65;102026.33;106624;1256;74158;-87
2024/01/09 02:58:23;;;;;;;;;;;;;;;-7.60;49.45;102028.11;106285;1255;60549;-78
2024/01/09 03:01:00;;;;;;;;;;;;;;;-7.59;49.53;102034.92;107291;1253;60441;-86
2024/01/09 03:03:36;;;;;;;;;;;;;;;-7.55;49.40;102034.46;107941;1253;73844;-77
2024/01/09 03:06:12;;;;;;;;;;;;;;;-7.49;49.28;102037.54;106399;1257;68443;-77
2024/01/09 03:08:48;;;;;;;;;;;;;;;-7.51;49.43;102044.03;106539;1254;72624;-77
2024/01/09 03:11:24;;;;;;;;;;;;;;;-7.53;49.18;102038.55;106079;1253;60852;-86
2024/01/09 03:13:59;;;;;;;;;;;;;;;-7.56;49.48;102038.08;105991;1256;60470;-89
2024/01/09 03:16:33;;;;;;;;;;;;;;;-7.49;49.15;102035.02;106471;1253;72331;-77
2024/01/09 03:19:08;;;;;;;;;;;;;;;-7.54;49.35;102038.99;107176;1258;68491;-87
2024/01/09 03:21:42;;;;;;;;;;;;;;;-7.57;49.39;102043.44;106472;1253;72761;-77
2024/01/09 03:24:16;;;;;;;;;;;;;;;-7.58;49.10;102044.59;105950;1253;60623;-86
2024/01/09 03:26:51;;;;;;;;;;;;;;;-7.59;49.39;102048.36;106232;1258;60603;-86
2024/01/09 03:29:25;;;;;;;;;;;;;;;-7.60;49.22;102048.98;106146;1258;74200;-77
2024/01/09 03:32:00;;;;;;;;;;;;;;;-7.66;49.54;102052.64;105999;1254;67277;-87
2024/01/09 03:34:36;;;;;;;;;;;;;;;-7.64;49.41;102066.64;106374;1257;72709;-77
2024/01/09 03:37:13;;;;;;;;;;;;;;;-7.64;49.33;102060.15;106063;1253;60908;-87
2024/01/09 03:39:47;;;;;;;;;;;;;;;-7.72;49.59;102067.65;106527;1252;60450;-76
2024/01/09 03:42:21;;;;;;;;;;;;;;;-7.76;49.35;102067.98;106397;1253;73998;-77
2024/01/09 03:44:54;;;;;;;;;;;;;;;-7.83;49.45;102072.36;105914;1253;68385;-77
2024/01/09 03:47:29;;;;;;;;;;;;;;;-7.87;49.22;102073.41;106243;1259;71720;-85
2024/01/09 03:50:03;;;;;;;;;;;;;;;-7.92;49.33;102072.92;106177;1259;60530;-77
2024/01/09 03:52:37;;;;;;;;;;;;;;;-7.76;49.19;102068.83;106178;1257;60425;-77
2024/01/09 03:55:10;;;;;;;;;;;;;;;-7.90;49.34;102072.36;106710;1252;72543;-77
2024/01/09 03:57:45;;;;;;;;;;;;;;;-7.97;49.72;102072.77;106097;1253;67227;-87
2024/01/09 04:00:20;;;;;;;;;;;;;;;-7.93;49.27;102071.91;106619;1253;72327;-86
2024/01/09 04:02:53;;;;;;;;;;;;;;;-7.73;49.10;102074.98;106308;1253;60585;-78
2024/01/09 04:05:27;;;;;;;;;;;;;;;-7.62;48.87;102072.19;106428;1258;60534;-87
2024/01/09 04:08:02;;;;;;;;;;;;;;;-7.50;48.63;102071.77;106503;1253;72641;-87
2024/01/09 04:10:36;;;;;;;;;;;;;;;-7.47;48.71;102074.38;106252;1260;68540;-82
2024/01/09 04:13:10;;;;;;;;;;;;;;;-7.45;48.59;102068.48;107009;1253;72395;-77
2024/01/09 04:15:44;;;;;;;;;;;;;;;-7.41;48.46;102067.30;106407;1253;60344;-77
2024/01/09 04:18:18;;;;;;;;;;;;;;;-7.39;48.92;102069.44;106626;1253;60419;-77
2024/01/09 04:20:52;;;;;;;;;;;;;;;-7.35;48.70;102068.76;106486;1253;72699;-77
2024/01/09 04:23:26;;;;;;;;;;;;;;;-7.29;48.57;102067.62;106352;1253;68429;-87
2024/01/09 04:26:00;;;;;;;;;;;;;;;-7.21;48.81;102073.38;106375;1252;72723;-86
2024/01/09 04:28:34;;;;;;;;;;;;;;;-7.18;48.71;102075.54;106768;1254;60336;-87
2024/01/09 04:31:07;;;;;;;;;;;;;;;-7.16;48.86;102075.95;106488;1254;60503;-88
2024/01/09 04:33:41;;;;;;;;;;;;;;;-7.14;48.99;102078.99;106570;1257;73800;-86
2024/01/09 04:36:22;;;;;;;;;;;;;;;-7.09;48.62;102084.23;106530;1253;68935;-79
2024/01/09 04:39:04;;;;;;;;;;;;;;;-7.07;48.64;102084.78;106476;1253;72660;-77
2024/01/09 04:41:44;;;;;;;;;;;;;;;-7.16;48.59;102087.45;106859;1253;60894;-78
2024/01/09 04:44:18;;;;;;;;;;;;;;;-7.26;48.28;102086.13;106452;1253;60537;-77
2024/01/09 04:46:52;;;;;;;;;;;;;;;-7.41;48.36;102093.55;106504;1252;71438;-87
2024/01/09 04:49:32;;;;;;;;;;;;;;;-7.50;48.47;102099.51;106475;1254;68748;-86
2024/01/09 04:52:12;;;;;;;;;;;;;;;-7.52;48.51;102095.13;106623;1256;72836;-77
2024/01/09 04:54:46;;;;;;;;;;;;;;;-7.55;48.27;102091.31;106711;1253;60934;-86
2024/01/09 04:57:20;;;;;;;;;;;;;;;-7.59;48.39;102097.08;106425;1253;61873;-87
2024/01/09 05:00:00;;;;;;;;;;;;;;;-7.57;48.19;102097.60;106571;1256;73819;-77
2024/01/09 05:02:40;;;;;;;;;;;;;;;-7.64;48.34;102097.60;106847;1251;68739;-77
2024/01/09 05:05:14;;;;;;;;;;;;;;;-7.63;48.10;102097.20;106390;1253;71448;-77
2024/01/09 05:07:48;;;;;;;;;;;;;;;-7.62;48.27;102100.44;106474;1253;61018;-85
2024/01/09 05:10:30;;;;;;;;;;;;;;;-7.60;47.90;102100.33;106476;1259;60467;-77
2024/01/09 05:13:10;;;;;;;;;;;;;;;-7.54;48.09;102103.94;106755;1254;77255;-87
2024/01/09 05:15:44;;;;;;;;;;;;;;;-7.56;48.04;102102.14;107666;1252;67716;-78
2024/01/09 05:18:24;;;;;;;;;;;;;;;-7.47;47.92;102107.41;106468;1253;72650;-78
2024/01/09 05:21:04;;;;;;;;;;;;;;;-7.42;47.70;102105.47;106034;1253;60486;-87
2024/01/09 05:23:38;;;;;;;;;;;;;;;-7.41;47.60;102106.96;106233;1256;60372;-89
2024/01/09 05:26:12;;;;;;;;;;;;;;;-7.44;47.43;102112.71;105997;1257;73868;-77
2024/01/09 05:28:52;;;;;;;;;;;;;;;-7.45;47.58;102116.50;106121;1256;68377;-86
2024/01/09 05:31:32;;;;;;;;;;;;;;;-7.49;47.30;102123.21;108079;1256;70893;-77
2024/01/09 05:34:06;;;;;;;;;;;;;;;-7.53;47.42;102130.91;107082;1253;61981;-87
2024/01/09 05:36:40;;;;;;;;;;;;;;;-7.58;47.68;102132.73;106020;1253;59699;-77
2024/01/09 05:39:20;;;;;;;;;;;;;;;-7.61;47.69;102131.04;106029;1255;73941;-86
2024/01/09 05:42:00;;;;;;;;;;;;;;;-7.66;47.52;102135.27;106195;1253;67143;-77
2024/01/09 05:44:34;;;;;;;;;;;;;;;-7.64;47.47;102135.89;106446;1256;71041;-77
2024/01/09 05:47:09;;;;;;;;;;;;;;;-7.63;47.62;102134.05;106230;1258;60983;-86
2024/01/09 05:49:49;;;;;;;;;;;;;;;-7.73;47.63;102137.77;106156;1253;60312;-77
2024/01/09 05:52:29;;;;;;;;;;;;;;;-7.76;47.89;102138.90;106147;1258;73826;-86
2024/01/09 05:55:03;;;;;;;;;;;;;;;-7.76;47.82;102144.58;105951;1257;67161;-79
2024/01/09 05:57:37;;;;;;;;;;;;;;;-7.77;47.83;102145.05;106305;1253;72703;-87
2024/01/09 06:00:18;;;;;;;;;;;;;;;-7.71;47.65;102141.90;106141;1254;60848;-87
2024/01/09 06:02:58;;;;;;;;;;;;;;;-7.72;47.74;102146.78;106501;1252;61116;-87
2024/01/09 06:05:32;;;;;;;;;;;;;;;-7.72;47.56;102145.86;106345;1253;71861;-88
2024/01/09 06:08:06;;;;;;;;;;;;;;;-7.72;47.65;102147.64;107210;1253;68298;-88
2024/01/09 06:10:46;;;;;;;;;;;;;;;-7.71;47.65;102145.42;106497;1252;72477;-88
2024/01/09 06:13:25;;;;;;;;;;;;;;;-7.67;47.81;102139.61;106563;1256;60866;-89
2024/01/09 06:15:59;;;;;;;;;;;;;;;-7.66;47.81;102142.89;106474;1253;61955;-79
2024/01/09 06:18:33;;;;;;;;;;;;;;;-7.63;47.79;102139.14;106215;1253;75404;-79
2024/01/09 06:21:16;;;;;;;;;;;;;;;-7.57;47.95;102137.06;107353;1253;68438;-88
2024/01/09 06:23:57;;;;;;;;;;;;;;;-7.51;47.83;102130.79;106664;1252;72360;-88
2024/01/09 06:26:31;;;;;;;;;;;;;;;-7.43;47.99;102134.36;106602;1258;60352;-88
2024/01/09 06:29:05;;;;;;;;;;;;;;;-7.37;47.95;102139.20;106425;1253;60606;-79
2024/01/09 06:31:46;;;;;;;;;;;;;;;-7.31;48.42;102134.54;106548;1254;72633;-88
2024/01/09 06:34:26;;;;;;;;;;;;;;;-7.23;48.36;102131.41;106658;1258;68389;-89
2024/01/09 06:37:06;;;;;;;;;;;;;;;-7.13;48.47;102132.38;106465;1253;72770;-79
2024/01/09 06:39:35;;;;;;;;;;;;;;;-7.00;48.45;102132.59;106456;1252;60595;-79
2024/01/09 06:42:16;;;;;;;;;;;;;;;-6.92;48.54;102131.73;106400;1254;60509;-79
2024/01/09 06:44:56;;;;;;;;;;;;;;;-6.85;48.90;102130.87;106626;1253;73864;-79
2024/01/09 06:47:36;;;;;;;;;;;;;;;-6.79;48.89;102122.02;106446;1253;67345;-87
2024/01/09 06:50:04;;;;;;;;;;;;;;;-6.69;49.09;102123.51;106490;1253;72926;-86
2024/01/09 06:53:00;;;;;;;;;;;;;;;-6.60;49.04;102127.52;106449;1253;60534;-79
2024/01/09 06:55:40;;;;;;;;;;;;;;;-6.41;49.29;102121.60;106585;1256;60425;-87
2024/01/09 06:58:21;;;;;;;;;;;;;;;-6.30;49.39;102121.16;107362;1253;74577;-87
2024/01/09 07:00:49;;;;;;;;;;;;;;;-6.16;49.50;102122.44;106364;1257;68771;-79
2024/01/09 07:03:29;;;;;;;;;;;;;;;-5.98;49.62;102119.36;106595;1253;70430;-79
2024/01/09 07:06:09;;;;;;;;;;;;;;;-5.82;49.62;102124.40;106687;1252;61059;-80
2024/01/09 07:08:43;;;;;;;;;;;;;;;-5.64;49.43;102128.65;106465;1258;61054;-79
2024/01/09 07:11:17;;;;;;;;;;;;;;;-5.46;49.60;102128.04;106289;1258;73765;-79
2024/01/09 07:13:57;;;;;;;;;;;;;;;-5.33;49.48;102132.39;106627;1257;67091;-79
2024/01/09 07:16:37;;;;;;;;;;;;;;;-5.18;49.48;102132.84;106297;1257;363869;-80
2024/01/09 07:19:13;;;;;;;;;;;;;;;-5.05;49.48;102133.33;106565;1253;60865;-79
2024/01/09 07:21:47;;;;;;;;;;;;;;;-4.93;49.53;102134.88;107734;1253;60524;-80
2024/01/09 07:24:27;;;;;;;;;;;;;;;-4.83;49.72;102133.27;106476;1253;72418;-80
2024/01/09 07:27:07;;;;;;;;;;;;;;;-4.68;49.77;102136.58;106581;1259;67098;-79
2024/01/09 07:29:41;;;;;;;;;;;;;;;-4.59;49.59;102135.23;106349;1253;72820;-86
2024/01/09 07:32:14;;;;;;;;;;;;;;;-4.57;49.82;102131.65;106524;1254;60402;-80
2024/01/09 07:34:55;;;;;;;;;;;;;;;-4.45;49.69;102128.83;106573;1256;60448;-85
2024/01/09 07:37:35;;;;;;;;;;;;;;;-4.32;49.55;102129.62;106603;1253;73911;-87
2024/01/09 07:40:09;;;;;;;;;;;;;;;-4.20;49.91;102141.72;106317;1259;67286;-78
2024/01/09 07:42:43;;;;;;;;;;;;;;;-4.08;49.82;102135.09;106500;1256;75334;-79
2024/01/09 07:45:35;;;;;;;;;;;;;;;-3.96;49.54;102134.65;106918;1256;60866;-86
2024/01/09 07:48:15;;;;;;;;;;;;;;;-3.87;49.42;102141.46;106986;1253;60356;-79
2024/01/09 07:50:56;;;;;;;;;;;;;;;-3.80;50.05;102148.15;109217;1253;72604;-87
2024/01/09 07:53:25;;;;;;;;;;;;;;;-3.67;50.17;102149.56;108478;1253;66247;-86
2024/01/09 07:56:05;;;;;;;;;;;;;;;-3.57;50.30;102149.20;108016;1257;73215;-80
2024/01/09 07:58:45;;;;;;;;;;;;;;;-3.51;50.15;102151.03;108277;1256;60483;-87
2024/01/09 08:01:25;;;;;;;;;;;;;;;-3.45;49.69;102145.16;106822;1256;60847;-79
2024/01/09 08:03:53;;;;;;;;;;;;;;;-3.38;49.81;102149.68;106602;1254;72659;-79
2024/01/09 08:06:33;;;;;;;;;;;;;;;-3.28;49.68;102152.95;106364;1253;69341;-79
2024/01/09 08:09:15;;;;;;;;;;;;;;;-3.22;49.90;102154.37;106515;1259;72654;-80
2024/01/09 08:11:55;;;;;;;;;;;;;;;-3.24;49.82;102157.64;106903;1253;62001;-79
2024/01/09 08:14:23;;;;;;;;;;;;;;;-3.32;49.57;102158.21;106583;1256;60517;-86
2024/01/09 08:17:03;;;;;;;;;;;;;;;-3.42;49.49;102163.59;106570;1256;73755;-85
2024/01/09 08:19:43;;;;;;;;;;;;;;;-3.42;49.96;102171.97;106453;1253;68373;-86
2024/01/09 08:22:18;;;;;;;;;;;;;;;-3.40;49.84;102177.37;109147;1251;71439;-84
2024/01/09 08:24:52;;;;;;;;;;;;;;;-3.35;49.88;102177.58;109345;1252;59794;-81
2024/01/09 08:27:32;;;;;;;;;;;;;;;-3.30;49.99;102180.27;107897;1258;59763;-86
2024/01/09 08:30:12;;;;;;;;;;;;;;;-3.29;50.25;102181.98;107466;1253;74272;-79
2024/01/09 09:53:05;;;;;;;;;;;;;;;0.14;55.10;102167.09;107255;1251;94477;-81
2024/01/09 09:55:45;;;;;;;;;;;;;;;0.21;54.89;102166.86;106160;1260;69759;-80
2024/01/09 09:58:19;;;;;;;;;;;;;;;0.23;55.21;102168.96;106259;1260;74770;-81
2024/01/09 10:00:53;;;;;;;;;;;;;;;0.25;55.60;102172.84;106123;1260;60531;-82
2024/01/09 10:03:36;;;;;;;;;;;;;;;0.16;56.20;102169.52;106000;1258;61988;-82
2024/01/09 10:06:16;;;;;;;;;;;;;;;0.29;56.45;102171.90;105972;1262;74773;-82
2024/01/09 10:08:49;;;;;;;;;;;;;;;0.28;56.85;102170.51;106205;1260;67121;-82
2024/01/09 10:11:23;;;;;;;;;;;;;;;0.34;57.37;102169.48;106128;1261;72797;-83
2024/01/09 10:14:03;;;;;;;;;;;;;;;0.53;57.35;102167.11;105909;1263;61237;-83
2024/01/09 10:16:58;;;;;;;;;;;;;;;0.59;57.72;102169.80;105986;1264;61131;-83
2024/01/09 10:19:38;;;;;;;;;;;;;;;0.77;57.70;102165.08;106314;1257;74615;-83
2024/01/09 10:22:06;;;;;;;;;;;;;;;0.74;58.42;102160.95;106011;1263;69611;-82
2024/01/09 10:24:45;;;;;;;;;;;;;;;0.86;58.83;102161.08;106117;1261;72657;-83
2024/01/09 10:27:25;;;;;;;;;;;;;;;0.96;59.47;102163.75;105902;1261;61274;-83
2024/01/09 10:30:05;;;;;;;;;;;;;;;1.12;59.84;102165.30;106130;1258;61288;-82
2024/01/09 10:32:33;;;;;;;;;;;;;;;1.24;59.65;102157.36;105981;1260;74755;-83
2024/01/09 10:35:13;;;;;;;;;;;;;;;1.27;59.62;102153.71;106199;1265;68346;-83
2024/01/09 10:37:53;;;;;;;;;;;;;;;1.29;59.99;102150.94;105963;1257;72882;-82
2024/01/09 10:40:27;;;;;;;;;;;;;;;1.38;60.22;102143.61;105962;1264;61342;-83
2024/01/09 10:43:01;;;;;;;;;;;;;;;1.42;60.63;102143.52;106209;1262;61378;-82
2024/01/09 10:45:41;;;;;;;;;;;;;;;1.48;60.37;102140.29;106078;1257;75200;-83
2024/01/09 10:48:23;;;;;;;;;;;;;;;1.50;60.85;102143.55;105906;1257;69146;-83
2024/01/09 10:50:57;;;;;;;;;;;;;;;1.47;61.08;102140.98;105735;1263;73988;-83
2024/01/09 10:53:32;;;;;;;;;;;;;;;1.52;61.25;102145.42;106026;1257;61344;-83
2024/01/09 10:56:14;;;;;;;;;;;;;;;1.47;61.02;102140.56;106009;1257;61353;-83
2024/01/09 10:58:55;;;;;;;;;;;;;;;1.38;61.57;102147.99;105856;1264;75509;-83
2024/01/09 11:01:31;;;;;;;;;;;;;;;1.29;62.28;102151.14;106002;1257;69309;-83
2024/01/09 11:04:04;;;;;;;;;;;;;;;1.53;61.88;102149.83;106252;1257;73778;-83
2024/01/09 11:06:44;;;;;;;;;;;;;;;1.68;61.31;102151.79;106063;1257;61360;-82
2024/01/09 11:09:25;;;;;;;;;;;;;;;1.86;60.94;102150.52;106035;1257;61370;-83
2024/01/09 11:12:04;;;;;;;;;;;;;;;1.88;60.36;102151.67;106792;1260;76597;-83
2024/01/09 11:14:44;;;;;;;;;;;;;;;1.80;60.23;102154.60;106196;1261;72909;-81
2024/01/09 11:17:24;;;;;;;;;;;;;;;1.86;60.15;102155.96;106241;1260;73600;-82
2024/01/09 11:20:04;;;;;;;;;;;;;;;1.83;60.38;102162.33;105960;1263;61948;-82
2024/01/09 11:22:44;;;;;;;;;;;;;;;1.79;60.42;102162.77;105895;1267;61247;-82
2024/01/09 11:25:29;;;;;;;;;;;;;;;1.76;60.29;102164.04;106186;1260;76954;-84
2024/01/09 11:28:09;;;;;;;;;;;;;;;1.76;60.57;102164.77;106844;1256;71022;-81
2024/01/09 11:30:51;;;;;;;;;;;;;;;1.73;60.71;102166.71;105883;1263;74631;-83
2024/01/09 11:33:41;;;;;;;;;;;;;;;1.86;60.67;102170.72;105943;1257;61912;-83
2024/01/09 11:36:34;;;;;;;;;;;;;;;1.93;60.66;102173.00;106338;1257;61746;-81
2024/01/09 11:39:14;;;;;;;;;;;;;;;1.87;60.80;102174.40;106416;1260;74708;-80
2024/01/09 11:41:55;;;;;;;;;;;;;;;1.84;61.47;102180.02;106132;1262;70267;-81
2024/01/09 11:44:34;;;;;;;;;;;;;;;1.82;61.05;102185.41;106164;1261;72776;-81
2024/01/09 11:47:14;;;;;;;;;;;;;;;1.84;60.75;102188.64;106111;1263;61349;-81
2024/01/09 11:49:56;;;;;;;;;;;;;;;1.90;60.85;102186.30;106306;1257;62697;-81
2024/01/09 11:52:37;;;;;;;;;;;;;;;1.98;60.75;102187.02;106035;1257;75686;-81
2024/01/09 11:55:18;;;;;;;;;;;;;;;1.98;60.42;102191.43;106046;1258;70391;-82
2024/01/09 11:57:59;;;;;;;;;;;;;;;2.04;60.06;102184.69;106053;1260;73613;-82
2024/01/09 12:00:40;;;;;;;;;;;;;;;2.05;59.88;102185.58;106113;1257;61355;-83
2024/01/09 12:03:21;;;;;;;;;;;;;;;2.01;60.26;102185.10;106293;1261;61334;-86
2024/01/09 12:06:01;;;;;;;;;;;;;;;2.04;60.50;102182.86;105936;1265;76853;-82
2024/01/09 12:08:41;;;;;;;;;;;;;;;2.07;59.86;102194.04;105999;1258;71201;-81
2024/01/09 12:11:21;;;;;;;;;;;;;;;1.95;59.79;102197.14;105898;1264;72732;-81
2024/01/09 12:14:06;;;;;;;;;;;;;;;1.84;60.33;102202.77;105843;1263;61285;-81
2024/01/09 12:16:46;;;;;;;;;;;;;;;1.84;60.23;102207.27;106112;1260;61217;-82
2024/01/09 12:19:26;;;;;;;;;;;;;;;1.86;60.19;102214.56;106043;1257;74318;-80
2024/01/09 12:22:06;;;;;;;;;;;;;;;1.96;59.77;102215.23;106426;1260;69812;-81
2024/01/09 12:24:46;;;;;;;;;;;;;;;2.00;59.81;102220.38;105953;1257;74656;-81
2024/01/09 12:27:27;;;;;;;;;;;;;;;1.98;59.43;102223.21;106229;1257;62239;-81
2024/01/09 12:30:06;;;;;;;;;;;;;;;1.90;59.97;102218.79;106086;1257;61423;-80
2024/01/09 12:32:46;;;;;;;;;;;;;;;1.96;59.61;102216.11;106079;1258;76751;-84
2024/01/09 12:35:27;;;;;;;;;;;;;;;1.96;59.34;102216.61;106180;1257;69330;-81
2024/01/09 12:38:06;;;;;;;;;;;;;;;1.92;59.49;102220.11;105932;1257;74642;-80
2024/01/09 12:40:46;;;;;;;;;;;;;;;1.89;59.61;102219.84;106380;1257;61252;-83
2024/01/09 12:43:26;;;;;;;;;;;;;;;1.86;59.62;102226.46;106177;1260;61392;-85
2024/01/09 12:46:07;;;;;;;;;;;;;;;1.79;59.80;102228.94;105880;1257;81505;-85
2024/01/09 12:48:47;;;;;;;;;;;;;;;1.74;60.36;102229.67;105931;1262;69957;-81
2024/01/09 12:51:32;;;;;;;;;;;;;;;1.76;60.73;102234.27;106068;1261;74991;-81
2024/01/09 12:54:12;;;;;;;;;;;;;;;1.82;60.79;102231.04;106032;1263;61788;-85
2024/01/09 12:56:54;;;;;;;;;;;;;;;1.83;60.63;102227.12;105933;1258;61261;-81
2024/01/09 12:59:36;;;;;;;;;;;;;;;1.77;60.59;102233.23;105993;1258;77063;-84
2024/01/09 13:02:16;;;;;;;;;;;;;;;1.81;60.81;102227.31;106129;1257;70778;-85
2024/01/09 13:04:50;;;;;;;;;;;;;;;1.89;60.33;102227.77;105918;1258;75025;-81
2024/01/09 13:07:30;;;;;;;;;;;;;;;1.84;60.35;102226.91;106053;1257;60418;-81
2024/01/09 13:10:10;;;;;;;;;;;;;;;1.83;60.27;102224.08;106009;1264;61287;-81
2024/01/09 13:12:44;;;;;;;;;;;;;;;1.86;60.37;102229.11;106322;1259;76994;-85
2024/01/09 13:15:17;;;;;;;;;;;;;;;1.79;60.42;102228.80;106322;1260;70114;-85
2024/01/09 13:17:57;;;;;;;;;;;;;;;1.76;60.30;102230.95;105912;1258;74902;-81
2024/01/09 13:20:38;;;;;;;;;;;;;;;1.75;60.65;102234.22;105923;1257;62631;-85
2024/01/09 13:23:12;;;;;;;;;;;;;;;1.85;60.14;102239.38;106265;1257;61389;-80
2024/01/09 13:25:49;;;;;;;;;;;;;;;1.87;60.13;102245.98;106008;1257;76914;-87
2024/01/09 13:28:29;;;;;;;;;;;;;;;1.92;59.73;102241.36;106077;1260;70365;-84
2024/01/09 13:31:11;;;;;;;;;;;;;;;1.89;59.79;102239.41;106104;1260;74985;-87
2024/01/09 13:33:45;;;;;;;;;;;;;;;1.89;59.62;102241.75;106391;1256;61238;-80
2024/01/09 13:36:19;;;;;;;;;;;;;;;1.82;59.81;102238.95;106051;1257;62094;-81
2024/01/09 13:38:59;;;;;;;;;;;;;;;1.81;59.90;102240.69;106029;1257;76956;-83
2024/01/09 13:41:39;;;;;;;;;;;;;;;1.81;60.12;102247.23;106040;1257;70187;-80
2024/01/09 13:44:13;;;;;;;;;;;;;;;1.84;60.07;102248.04;106143;1263;71876;-85
2024/01/09 13:46:47;;;;;;;;;;;;;;;1.85;59.58;102247.98;106105;1257;61316;-84
2024/01/09 13:49:30;;;;;;;;;;;;;;;1.77;59.57;102251.23;106066;1257;61283;-85
2024/01/09 13:52:11;;;;;;;;;;;;;;;1.78;59.43;102252.96;105881;1258;76987;-81
2024/01/09 13:54:51;;;;;;;;;;;;;;;1.79;59.56;102258.08;106313;1257;68671;-84
2024/01/09 13:57:20;;;;;;;;;;;;;;;1.71;59.59;102255.63;105886;1258;74704;-85
2024/01/09 14:00:00;;;;;;;;;;;;;;;1.70;59.17;102255.10;105980;1257;61217;-84
2024/01/09 14:02:44;;;;;;;;;;;;;;;1.70;59.15;102254.21;105897;1257;61221;-80
2024/01/09 14:05:24;;;;;;;;;;;;;;;1.73;59.14;102258.88;106220;1257;73428;-85
2024/01/09 14:07:52;;;;;;;;;;;;;;;1.71;59.29;102262.33;105998;1261;69659;-81
2024/01/09 14:10:32;;;;;;;;;;;;;;;1.74;59.07;102264.70;105951;1257;75054;-84
2024/01/09 14:13:12;;;;;;;;;;;;;;;1.68;59.30;102262.24;105943;1262;61358;-85
2024/01/09 14:15:46;;;;;;;;;;;;;;;1.72;59.13;102259.54;105971;1257;61156;-85
2024/01/09 14:18:20;;;;;;;;;;;;;;;1.72;59.09;102260.08;106291;1261;76984;-81
2024/01/09 14:21:01;;;;;;;;;;;;;;;1.76;58.62;102255.88;105958;1257;70412;-82
2024/01/09 14:23:40;;;;;;;;;;;;;;;1.67;58.68;102251.81;106026;1262;75089;-86
2024/01/09 14:26:17;;;;;;;;;;;;;;;1.61;59.17;102248.23;105942;1257;62768;-82
2024/01/09 14:28:51;;;;;;;;;;;;;;;1.63;59.60;102247.23;106397;1258;61307;-82
2024/01/09 14:31:31;;;;;;;;;;;;;;;1.65;59.33;102251.76;106030;1260;75476;-82
2024/01/09 14:34:11;;;;;;;;;;;;;;;1.70;59.25;102250.07;105905;1261;69600;-81
2024/01/09 14:36:45;;;;;;;;;;;;;;;1.72;59.16;102256.67;106045;1258;74468;-85
2024/01/09 14:39:19;;;;;;;;;;;;;;;1.74;59.12;102256.42;106197;1260;62559;-86
2024/01/09 14:41:59;;;;;;;;;;;;;;;1.74;59.31;102260.48;105863;1257;61358;-85
2024/01/09 14:44:39;;;;;;;;;;;;;;;1.77;59.09;102259.30;105887;1256;73632;-81